Time;durP1;ratioP1;P1;durP2;ratioP2;P2;SDS_P1;SDS_P2;PMS_P1;PMS_P2;Temp;Humidity;BMP_temperature;BMP_pressure;BME280_temperature;BME280_humidity;BME280_pressure;Samples;Min_cycle;Max_cycle;Signal;HPM_P1;HPM_P2
2022/08/24 00:02:10;;;;;;;20.63;16.33;;;;;;;19.98;83.06;101643.53;5100991;27;20032;-57
2022/08/24 00:04:35;;;;;;;18.33;15.82;;;;;;;20.10;82.26;101640.22;5104902;27;20046;-57
2022/08/24 00:07:02;;;;;;;19.77;15.65;;;;;;;20.08;82.05;101637.72;5095259;28;20834;-57
2022/08/24 00:09:29;;;;;;;21.40;16.27;;;;;;;20.07;82.09;101630.69;5099636;28;20036;-57
2022/08/24 00:11:54;;;;;;;19.67;15.88;;;;;;;20.19;81.57;101633.63;5097112;28;20361;-57
2022/08/24 00:14:19;;;;;;;20.73;16.92;;;;;;;20.20;82.35;101637.97;5102702;27;20034;-57
2022/08/24 00:16:45;;;;;;;21.63;19.00;;;;;;;20.12;83.92;101640.84;5099976;28;20035;-57
2022/08/24 00:19:10;;;;;;;19.10;16.55;;;;;;;20.03;83.51;101648.28;5099976;28;20023;-56
2022/08/24 00:21:36;;;;;;;19.33;16.27;;;;;;;19.94;82.85;101653.03;5093640;28;20035;-57
2022/08/24 00:24:01;;;;;;;21.42;16.38;;;;;;;19.93;83.22;101645.16;5092119;28;20043;-56
2022/08/24 00:26:27;;;;;;;20.80;16.52;;;;;;;19.93;83.01;101651.34;5100919;28;20108;-57
2022/08/24 00:28:52;;;;;;;22.45;17.33;;;;;;;19.95;83.50;101654.69;5101038;28;20027;-58
2022/08/24 00:31:18;;;;;;;21.50;16.50;;;;;;;19.86;83.08;101655.88;5092167;28;20125;-56
2022/08/24 00:33:44;;;;;;;20.05;16.67;;;;;;;19.80;83.20;101651.31;5093112;28;20544;-57
2022/08/24 00:36:09;;;;;;;20.20;16.13;;;;;;;19.84;83.03;101658.78;5097536;28;20035;-57
2022/08/24 00:38:35;;;;;;;23.17;17.38;;;;;;;19.89;82.77;101655.50;5098700;28;20054;-58
2022/08/24 00:41:00;;;;;;;20.33;16.83;;;;;;;19.90;82.84;101659.84;5097610;28;20027;-57
2022/08/24 00:43:27;;;;;;;22.80;18.15;;;;;;;19.85;83.70;101665.84;5098363;28;20918;-57
2022/08/24 00:45:52;;;;;;;20.58;17.67;;;;;;;19.85;83.97;101659.63;5099367;28;20027;-57
2022/08/24 00:48:22;;;;;;;22.87;18.47;;;;;;;19.73;84.04;101652.13;5099678;28;20039;-57
2022/08/24 00:50:52;;;;;;;22.13;17.98;;;;;;;19.56;83.93;101645.47;5102724;28;20293;-59
2022/08/24 00:53:49;;;;;;;21.70;17.33;;;;;;;19.66;83.47;101659.38;5101576;28;20046;-57
2022/08/24 00:56:26;;;;;;;21.38;17.60;;;;;;;19.66;84.06;101662.06;5096864;28;20044;-58
2022/08/24 00:59:12;;;;;;;23.27;19.70;;;;;;;19.60;84.54;101654.78;5097798;28;20032;-56
2022/08/24 01:01:38;;;;;;;24.70;20.25;;;;;;;19.51;84.65;101659.53;5098035;28;20076;-57
2022/08/24 01:04:04;;;;;;;25.02;21.10;;;;;;;19.53;85.19;101662.84;5090823;28;20028;-57
2022/08/24 01:06:32;;;;;;;24.95;20.60;;;;;;;19.61;84.72;101669.91;5095949;28;20024;-56
2022/08/24 01:08:58;;;;;;;23.80;20.75;;;;;;;19.62;84.92;101658.09;5102341;28;20035;-56
2022/08/24 01:11:26;;;;;;;23.42;20.90;;;;;;;19.57;84.93;101663.25;5095052;28;20492;-57
2022/08/24 01:13:53;;;;;;;23.33;20.60;;;;;;;19.55;85.13;101654.56;5095614;28;20027;-58
2022/08/24 01:18:48;;;;;;;26.00;20.52;;;;;;;19.59;84.62;101650.44;5097816;28;20028;-56
2022/08/24 01:19:16;;;;;;;23.38;20.77;;;;;;;19.66;84.66;101651.28;5099788;28;20079;-56
2022/08/24 01:22:04;;;;;;;24.77;21.40;;;;;;;19.60;85.67;101652.09;5102721;28;20023;-57
2022/08/24 01:24:30;;;;;;;27.92;21.15;;;;;;;19.57;85.58;101655.19;5086486;28;20108;-56
2022/08/24 01:26:56;;;;;;;21.27;18.30;;;;;;;19.36;85.33;101651.59;5105786;28;20036;-56
2022/08/24 01:29:26;;;;;;;19.75;17.25;;;;;;;19.08;86.44;101661.41;5100078;28;20032;-56
2022/08/24 01:31:52;;;;;;;21.95;18.20;;;;;;;19.18;86.12;101655.66;5104490;28;20027;-57
2022/08/24 01:34:18;;;;;;;20.77;17.27;;;;;;;19.19;85.80;101661.88;5101335;28;20046;-58
2022/08/24 01:36:55;;;;;;;25.25;18.33;;;;;;;19.01;86.76;101657.81;5094827;28;20055;-56
2022/08/24 01:39:26;;;;;;;21.55;18.50;;;;;;;19.13;86.46;101647.34;5098289;28;20038;-56
2022/08/24 01:41:52;;;;;;;21.65;19.33;;;;;;;19.19;86.16;101646.56;5095733;28;21384;-57
2022/08/24 01:44:20;;;;;;;22.20;19.63;;;;;;;19.19;85.89;101641.19;5106827;27;20036;-56
2022/08/24 01:46:47;;;;;;;26.88;21.08;;;;;;;19.14;86.47;101638.25;5104725;28;20124;-56
2022/08/24 01:49:14;;;;;;;24.67;21.33;;;;;;;19.21;86.26;101649.06;5101335;28;20032;-57
2022/08/24 01:51:39;;;;;;;24.38;20.92;;;;;;;19.22;85.67;101640.78;5102783;28;20031;-55
2022/08/24 01:54:06;;;;;;;25.60;22.27;;;;;;;19.14;87.17;101643.63;5109478;27;20073;-57
2022/08/24 01:56:32;;;;;;;24.35;21.15;;;;;;;19.22;86.37;101643.50;5104811;28;20105;-56
2022/08/24 01:58:58;;;;;;;22.95;20.13;;;;;;;19.29;85.55;101645.38;5103070;28;20054;-58
2022/08/24 02:01:26;;;;;;;25.27;21.15;;;;;;;19.20;85.86;101639.34;5103024;28;20031;-57
2022/08/24 02:03:51;;;;;;;26.10;22.67;;;;;;;19.20;86.57;101634.78;5105047;27;20043;-57
2022/08/24 02:06:18;;;;;;;25.65;21.50;;;;;;;19.20;85.93;101647.41;5103717;28;20034;-57
2022/08/24 02:08:44;;;;;;;24.30;20.55;;;;;;;19.27;85.60;101647.41;5106095;28;20038;-58
2022/08/24 02:11:10;;;;;;;23.80;21.30;;;;;;;19.26;85.29;101643.06;5103919;28;20019;-56
2022/08/24 02:13:37;;;;;;;24.27;20.77;;;;;;;19.30;85.65;101647.03;5106741;27;20020;-57
2022/08/24 02:16:04;;;;;;;15.13;12.77;;;;;;;19.25;85.44;101650.31;5101036;28;20435;-57
2022/08/24 02:18:30;;;;;;;19.23;17.13;;;;;;;19.10;86.17;101647.78;5103986;28;20028;-56
2022/08/24 02:20:56;;;;;;;24.70;20.95;;;;;;;19.04;86.43;101648.56;5099031;28;20043;-58
2022/08/24 02:23:22;;;;;;;24.17;21.58;;;;;;;19.01;86.37;101654.28;5105689;27;20088;-56
2022/08/24 02:25:47;;;;;;;25.50;21.38;;;;;;;18.98;86.76;101654.69;5105488;28;20031;-58
2022/08/24 02:28:13;;;;;;;26.15;21.52;;;;;;;19.00;86.90;101653.44;5100936;28;20027;-58
2022/08/24 02:30:39;;;;;;;25.08;21.58;;;;;;;19.00;86.70;101658.00;5102565;28;20059;-59
2022/08/24 02:33:05;;;;;;;25.88;21.10;;;;;;;19.05;86.86;101666.34;5104847;27;20031;-56
2022/08/24 02:35:30;;;;;;;25.65;22.48;;;;;;;19.03;87.47;101660.31;5105613;28;20480;-57
2022/08/24 02:37:57;;;;;;;23.20;20.80;;;;;;;18.95;87.07;101669.38;5100782;28;20050;-57
2022/08/24 02:40:23;;;;;;;24.80;20.55;;;;;;;18.82;87.43;101665.56;5103229;28;20098;-58
2022/08/24 02:42:48;;;;;;;19.05;16.90;;;;;;;18.79;87.79;101657.88;5097751;27;20469;-58
2022/08/24 02:45:14;;;;;;;23.52;21.02;;;;;;;18.73;88.23;101663.19;5099227;28;20830;-58
2022/08/24 02:47:39;;;;;;;27.92;23.17;;;;;;;18.64;88.82;101662.50;5097726;28;20073;-58
2022/08/24 02:50:09;;;;;;;26.60;22.55;;;;;;;18.46;89.15;101671.06;5104855;28;20031;-57
2022/08/24 02:52:38;;;;;;;25.92;22.38;;;;;;;18.52;89.18;101662.22;5108034;27;20034;-58
2022/08/24 02:55:04;;;;;;;26.45;20.73;;;;;;;18.55;89.17;101668.03;5106712;27;20027;-57
2022/08/24 02:57:29;;;;;;;23.92;20.92;;;;;;;18.69;88.17;101668.13;5103599;28;20525;-58
2022/08/24 02:59:55;;;;;;;23.30;20.80;;;;;;;18.73;87.73;101665.88;5100916;28;20066;-59
2022/08/24 03:02:20;;;;;;;26.85;21.35;;;;;;;18.66;87.96;101661.28;5096669;27;20029;-58
2022/08/24 03:04:46;;;;;;;25.98;21.60;;;;;;;18.62;88.53;101665.41;5099861;27;20042;-55
2022/08/24 03:07:11;;;;;;;25.95;22.50;;;;;;;18.64;88.21;101666.03;5103193;28;20057;-57
2022/08/24 03:09:37;;;;;;;29.48;22.33;;;;;;;18.64;88.13;101655.31;5104613;28;20031;-57
2022/08/24 03:12:02;;;;;;;23.85;21.25;;;;;;;18.64;87.48;101660.69;5103132;28;20135;-57
2022/08/24 03:14:28;;;;;;;26.30;22.65;;;;;;;18.58;88.21;101660.63;5100029;28;20039;-56
2022/08/24 03:16:53;;;;;;;25.35;22.45;;;;;;;18.66;88.25;101658.59;5102444;28;20027;-58
2022/08/24 03:19:19;;;;;;;20.98;18.17;;;;;;;18.65;88.39;101662.31;5078094;28;20032;-57
2022/08/24 03:21:44;;;;;;;22.75;18.45;;;;;;;18.56;88.04;101660.84;5103744;28;20503;-56
2022/08/24 03:24:09;;;;;;;21.35;17.15;;;;;;;18.59;87.73;101663.09;5103283;27;20031;-58
2022/08/24 03:26:35;;;;;;;18.73;15.38;;;;;;;18.61;87.23;101661.09;5101849;28;20032;-56
2022/08/24 03:29:00;;;;;;;20.50;16.77;;;;;;;18.50;87.32;101651.69;5102092;28;20077;-56
2022/08/24 03:31:26;;;;;;;22.00;18.38;;;;;;;18.45;87.23;101653.31;5101922;28;20464;-56
2022/08/24 03:33:51;;;;;;;21.10;18.17;;;;;;;18.46;87.11;101658.47;5104643;27;20110;-56
2022/08/24 03:36:17;;;;;;;22.10;18.85;;;;;;;18.50;87.36;101656.25;5102832;27;20196;-56
2022/08/24 03:38:42;;;;;;;21.80;19.10;;;;;;;18.48;87.06;101650.22;5099919;28;20114;-57
2022/08/24 03:41:09;;;;;;;23.27;19.92;;;;;;;18.39;87.52;101653.06;5096037;28;20510;-56
2022/08/24 03:43:45;;;;;;;23.83;19.65;;;;;;;18.45;87.28;101651.44;5089649;27;20125;-56
2022/08/24 03:46:12;;;;;;;24.27;20.20;;;;;;;18.46;87.16;101653.13;5095805;28;20023;-57
2022/08/24 03:48:39;;;;;;;28.00;22.83;;;;;;;18.51;88.62;101644.47;5096347;28;20028;-57
2022/08/24 03:51:09;;;;;;;23.27;19.70;;;;;;;18.45;89.16;101647.94;5104387;28;20534;-56
2022/08/24 03:53:35;;;;;;;13.52;11.88;;;;;;;18.18;88.72;101655.75;5099167;28;20059;-56
2022/08/24 03:56:00;;;;;;;16.83;14.30;;;;;;;18.13;88.86;101649.13;5085736;28;20078;-58
2022/08/24 03:58:26;;;;;;;16.38;14.40;;;;;;;18.00;89.74;101649.78;5097649;28;20026;-56
2022/08/24 04:00:52;;;;;;;18.23;15.07;;;;;;;18.18;89.24;101653.06;5102903;28;20379;-58
2022/08/24 04:03:17;;;;;;;18.98;15.88;;;;;;;18.24;88.92;101653.13;5103126;27;20023;-56
2022/08/24 04:05:42;;;;;;;19.70;17.20;;;;;;;18.19;88.83;101654.72;5103517;28;20019;-57
2022/08/24 04:08:08;;;;;;;21.00;17.05;;;;;;;18.04;89.14;101666.31;5100177;28;20395;-59
2022/08/24 04:10:34;;;;;;;29.02;21.98;;;;;;;18.02;89.46;101663.00;5096797;28;20592;-56
2022/08/24 04:13:00;;;;;;;31.08;25.13;;;;;;;17.95;88.87;101668.28;5079079;28;20031;-59
2022/08/24 04:15:30;;;;;;;29.55;24.02;;;;;;;17.92;88.77;101662.47;5099929;28;20056;-59
2022/08/24 04:17:55;;;;;;;28.80;23.90;;;;;;;17.87;89.26;101660.38;5102279;28;20028;-56
2022/08/24 04:20:21;;;;;;;26.27;22.88;;;;;;;17.85;89.16;101665.94;5092591;28;20387;-56
2022/08/24 04:22:46;;;;;;;29.73;25.45;;;;;;;17.82;89.87;101665.47;5095196;28;20090;-56
2022/08/24 04:25:12;;;;;;;30.65;24.80;;;;;;;17.82;89.36;101663.59;5104083;28;20116;-56
2022/08/24 04:27:39;;;;;;;27.75;24.08;;;;;;;17.90;89.23;101662.66;5102692;28;20031;-57
2022/08/24 04:30:05;;;;;;;28.75;25.10;;;;;;;17.77;91.23;101666.06;5094903;28;20032;-58
2022/08/24 04:32:31;;;;;;;24.60;20.90;;;;;;;17.68;90.56;101672.53;5090435;28;20088;-57
2022/08/24 04:34:58;;;;;;;24.85;21.45;;;;;;;17.77;90.64;101674.09;5092688;28;20217;-58
2022/08/24 04:37:24;;;;;;;29.75;24.90;;;;;;;17.76;91.41;101675.09;5101815;28;20038;-56
2022/08/24 04:39:49;;;;;;;26.85;23.63;;;;;;;17.79;90.73;101674.72;5102123;28;20388;-57
2022/08/24 04:42:15;;;;;;;27.30;23.88;;;;;;;17.71;90.77;101666.81;5093041;28;20027;-57
2022/08/24 04:44:40;;;;;;;26.02;23.23;;;;;;;17.84;90.91;101677.69;5089852;28;20039;-57
2022/08/24 04:47:07;;;;;;;26.15;23.25;;;;;;;17.92;90.94;101678.59;5091731;28;20048;-57
2022/08/24 04:49:32;;;;;;;27.55;23.70;;;;;;;17.91;90.93;101676.94;5094986;28;20024;-56
2022/08/24 04:51:57;;;;;;;29.50;24.52;;;;;;;17.92;90.65;101670.53;5092381;28;20024;-57
2022/08/24 04:54:24;;;;;;;26.02;23.17;;;;;;;17.88;90.64;101673.59;5101192;28;20518;-57
2022/08/24 04:56:49;;;;;;;27.58;24.50;;;;;;;17.90;90.56;101680.63;5096131;28;20053;-56
2022/08/24 04:59:14;;;;;;;28.13;23.95;;;;;;;17.94;90.34;101682.75;5105945;28;20465;-57
2022/08/24 05:01:41;;;;;;;27.85;24.65;;;;;;;17.96;90.35;101682.56;5099439;28;20039;-59
2022/08/24 05:04:06;;;;;;;29.35;25.15;;;;;;;17.94;90.20;101681.91;5099753;27;20582;-57
2022/08/24 05:06:32;;;;;;;32.20;26.88;;;;;;;17.84;90.90;101688.41;5102412;28;20036;-56
2022/08/24 05:08:59;;;;;;;29.38;25.85;;;;;;;17.93;90.51;101680.25;5106593;28;20051;-57
2022/08/24 05:11:25;;;;;;;31.13;26.98;;;;;;;17.98;90.60;101683.19;5103676;27;20047;-56
2022/08/24 05:13:52;;;;;;;30.13;26.88;;;;;;;17.87;90.60;101682.66;5107510;27;20110;-57
2022/08/24 05:16:18;;;;;;;31.00;26.05;;;;;;;18.00;90.36;101686.50;5103581;28;20465;-56
2022/08/24 05:18:45;;;;;;;30.05;26.80;;;;;;;18.02;89.76;101690.66;5108718;28;20127;-58
2022/08/24 05:21:13;;;;;;;30.77;26.02;;;;;;;18.04;90.30;101682.44;5096864;28;20050;-58
2022/08/24 05:23:39;;;;;;;29.60;26.25;;;;;;;18.04;90.79;101693.16;5109601;27;20032;-56
2022/08/24 05:26:07;;;;;;;30.75;26.58;;;;;;;17.97;91.20;101686.91;5104767;28;20135;-57
2022/08/24 05:28:34;;;;;;;30.02;26.83;;;;;;;18.02;91.51;101689.84;5098492;27;20128;-57
2022/08/24 05:31:08;;;;;;;30.30;26.92;;;;;;;18.09;91.22;101696.13;5105690;28;20387;-57
2022/08/24 05:33:33;;;;;;;30.50;26.92;;;;;;;18.13;91.26;101691.22;5102797;27;20043;-57
2022/08/24 05:35:59;;;;;;;30.85;27.52;;;;;;;18.18;91.40;101698.69;5103827;28;20125;-56
2022/08/24 05:38:24;;;;;;;31.65;27.65;;;;;;;18.18;91.63;101693.31;5101047;28;20031;-57
2022/08/24 05:40:50;;;;;;;34.55;29.60;;;;;;;18.22;91.89;101697.28;5104950;28;20028;-57
2022/08/24 05:43:15;;;;;;;33.15;28.17;;;;;;;18.27;91.68;101700.22;5115093;27;20027;-56
2022/08/24 05:45:43;;;;;;;32.78;28.98;;;;;;;18.33;91.03;101702.16;5110863;27;20787;-59
2022/08/24 05:48:08;;;;;;;32.90;28.48;;;;;;;18.38;91.58;101705.09;5105401;28;20067;-56
2022/08/24 05:50:33;;;;;;;32.67;28.58;;;;;;;18.45;91.57;101698.94;5104068;28;20070;-55
2022/08/24 05:52:59;;;;;;;35.22;31.42;;;;;;;18.44;92.59;101694.59;5098999;27;20358;-56
2022/08/24 05:55:24;;;;;;;33.67;30.05;;;;;;;18.51;91.69;101699.00;5106529;28;20035;-58
2022/08/24 05:57:51;;;;;;;35.53;30.10;;;;;;;18.59;92.16;101700.72;5100760;28;20083;-58
2022/08/24 06:00:17;;;;;;;34.88;30.45;;;;;;;18.67;92.13;101703.28;5102509;28;20032;-58
2022/08/24 06:02:43;;;;;;;36.00;29.98;;;;;;;18.73;92.05;101700.81;5099971;27;20484;-57
2022/08/24 06:05:08;;;;;;;34.33;29.55;;;;;;;18.77;92.27;101699.41;5097506;28;20106;-58
2022/08/24 06:07:34;;;;;;;39.75;33.78;;;;;;;18.85;94.26;101704.63;5097228;28;20038;-57
2022/08/24 06:09:59;;;;;;;42.30;37.33;;;;;;;18.86;94.80;101705.47;5094928;28;20027;-56
2022/08/24 06:12:24;;;;;;;45.58;40.78;;;;;;;18.86;95.11;101706.31;5097806;28;20032;-56
2022/08/24 06:14:50;;;;;;;45.80;40.90;;;;;;;18.86;95.57;101706.31;5099138;27;20027;-56
2022/08/24 06:17:15;;;;;;;44.00;39.20;;;;;;;18.90;95.95;101712.94;5100681;28;20105;-58
2022/08/24 06:19:42;;;;;;;45.35;39.47;;;;;;;18.93;96.27;101714.41;5101324;28;20024;-56
2022/08/24 06:22:08;;;;;;;45.70;40.78;;;;;;;18.97;96.28;101721.06;5098216;28;20464;-58
2022/08/24 06:27:22;;;;;;;49.33;40.50;;;;;;;19.07;95.28;101720.72;5096568;28;20053;-58
2022/08/24 06:30:04;;;;;;;47.15;42.25;;;;;;;19.15;94.68;101725.94;5103681;28;20047;-59
2022/08/24 06:32:29;;;;;;;48.63;43.33;;;;;;;19.22;95.23;101726.84;5096002;27;20040;-58
2022/08/24 06:34:57;;;;;;;47.47;42.30;;;;;;;19.28;95.51;101719.81;5099180;27;20028;-59
2022/08/24 06:37:26;;;;;;;50.88;43.75;;;;;;;19.36;96.07;101726.91;5092904;28;20031;-59
2022/08/24 06:39:52;;;;;;;47.40;40.92;;;;;;;19.45;95.52;101730.25;5094701;28;20046;-60
2022/08/24 06:42:18;;;;;;;44.85;39.95;;;;;;;19.52;95.01;101725.72;5097602;28;20032;-60
2022/08/24 06:44:43;;;;;;;47.08;39.33;;;;;;;19.60;94.30;101728.25;5100956;28;20540;-58
2022/08/24 06:47:10;;;;;;;47.50;40.47;;;;;;;19.67;94.19;101739.03;5100947;28;20055;-59
2022/08/24 06:49:36;;;;;;;45.17;40.42;;;;;;;19.72;94.38;101736.59;5097874;28;20035;-59
2022/08/24 06:52:03;;;;;;;46.70;40.58;;;;;;;19.81;94.01;101736.41;5096137;28;20078;-59
2022/08/24 06:54:28;;;;;;;42.90;38.08;;;;;;;19.86;94.22;101736.63;5097824;27;20062;-59
2022/08/24 06:56:55;;;;;;;40.70;36.28;;;;;;;19.93;93.38;101740.16;5094549;28;20479;-59
2022/08/24 06:59:20;;;;;;;41.25;35.47;;;;;;;20.02;92.36;101732.78;5095334;28;20042;-58
2022/08/24 07:01:46;;;;;;;41.28;36.40;;;;;;;20.03;92.87;101743.34;5097093;28;20229;-59
2022/08/24 07:04:11;;;;;;;39.80;35.20;;;;;;;20.12;92.18;101745.84;5095773;28;20118;-59
2022/08/24 07:06:36;;;;;;;41.72;36.45;;;;;;;20.21;91.71;101744.63;5098717;28;20038;-59
2022/08/24 07:09:02;;;;;;;47.03;36.55;;;;;;;20.28;91.24;101745.47;5097184;28;20513;-58
2022/08/24 07:11:27;;;;;;;45.42;35.88;;;;;;;20.37;90.53;101748.78;5096963;28;20036;-59
2022/08/24 07:13:53;;;;;;;38.78;33.67;;;;;;;20.43;89.54;101755.25;5097317;27;20023;-58
2022/08/24 07:16:19;;;;;;;42.65;35.22;;;;;;;20.51;89.97;101756.88;5093933;28;20058;-59
2022/08/24 07:18:45;;;;;;;40.60;35.28;;;;;;;20.55;89.88;101753.59;5095157;28;20028;-59
2022/08/24 07:21:10;;;;;;;39.95;33.17;;;;;;;20.66;89.10;101752.13;5097881;28;20050;-58
2022/08/24 07:23:36;;;;;;;41.10;33.63;;;;;;;20.73;88.85;101757.53;5096901;27;20019;-58
2022/08/24 07:26:10;;;;;;;37.40;32.97;;;;;;;20.82;88.36;101761.66;5096976;28;20472;-58
2022/08/24 07:28:37;;;;;;;34.30;29.45;;;;;;;20.94;86.39;101759.22;5093349;28;20036;-58
2022/08/24 07:31:04;;;;;;;32.70;28.65;;;;;;;21.03;85.48;101765.22;5092113;28;20102;-57
2022/08/24 07:33:29;;;;;;;31.33;25.50;;;;;;;21.13;85.34;101761.25;5094352;28;20031;-58
2022/08/24 07:35:54;;;;;;;32.15;26.60;;;;;;;21.20;83.91;101756.69;5098816;28;22026;-59
2022/08/24 07:38:19;;;;;;;33.35;25.23;;;;;;;21.32;82.36;101744.19;5098586;28;20043;-58
2022/08/24 07:40:49;;;;;;;31.85;26.65;;;;;;;21.43;82.79;101755.38;5096868;28;20119;-58
2022/08/24 07:43:14;;;;;;;30.17;25.85;;;;;;;21.54;83.15;101746.63;5096157;27;20020;-56
2022/08/24 07:45:40;;;;;;;31.38;26.40;;;;;;;21.59;82.03;101749.53;5098833;28;20027;-57
2022/08/24 07:48:06;;;;;;;29.25;24.15;;;;;;;21.74;80.51;101749.28;5093415;28;20070;-56
2022/08/24 07:50:31;;;;;;;28.92;24.10;;;;;;;21.76;79.66;101749.06;5104136;28;20663;-56
2022/08/24 07:52:57;;;;;;;32.45;24.15;;;;;;;21.85;78.79;101752.38;5106240;27;20444;-58
2022/08/24 07:55:22;;;;;;;26.27;23.20;;;;;;;21.89;79.58;101756.25;5098833;28;20156;-56
2022/08/24 07:57:47;;;;;;;28.08;20.95;;;;;;;21.97;77.88;101750.63;5092445;28;20031;-58
2022/08/24 08:00:16;;;;;;;25.73;21.48;;;;;;;22.08;77.80;101751.81;5096178;28;20027;-57
2022/08/24 08:02:45;;;;;;;22.13;16.40;;;;;;;22.13;75.25;101754.69;5095362;28;20544;-56
2022/08/24 08:05:12;;;;;;;21.75;15.82;;;;;;;22.27;75.26;101751.91;5097647;28;20543;-56
2022/08/24 08:07:37;;;;;;;20.35;15.25;;;;;;;22.28;73.81;101758.97;5087985;28;20097;-56
2022/08/24 08:10:03;;;;;;;23.95;14.95;;;;;;;22.33;74.07;101759.13;5092719;28;20484;-58
2022/08/24 08:12:28;;;;;;;19.15;14.30;;;;;;;22.47;72.74;101753.63;5092585;28;20428;-57
2022/08/24 08:14:54;;;;;;;20.50;13.77;;;;;;;22.44;73.28;101758.44;5099269;28;20028;-56
2022/08/24 08:17:19;;;;;;;19.48;12.80;;;;;;;22.54;71.80;101759.84;5093520;28;20042;-57
2022/08/24 08:19:44;;;;;;;19.75;13.40;;;;;;;22.61;72.48;101757.94;5095773;28;20565;-56
2022/08/24 08:24:54;;;;;;;17.20;10.10;;;;;;;22.87;68.68;101760.59;5097553;28;20099;-57
2022/08/24 08:27:20;;;;;;;16.50;9.88;;;;;;;22.94;69.02;101764.91;5094697;28;20119;-56
2022/08/24 08:29:46;;;;;;;16.40;10.90;;;;;;;23.03;69.36;101761.94;5097155;28;20039;-58
2022/08/24 08:32:15;;;;;;;19.23;11.98;;;;;;;23.11;68.00;101758.94;5093223;28;20032;-57
2022/08/24 08:34:41;;;;;;;18.75;12.73;;;;;;;23.23;68.87;101756.31;5097069;28;20093;-57
2022/08/24 08:37:07;;;;;;;16.65;12.07;;;;;;;23.35;69.60;101754.53;5090216;28;20635;-57
2022/08/24 08:39:33;;;;;;;16.67;11.40;;;;;;;23.48;67.82;101758.97;5086481;28;20123;-58
2022/08/24 08:42:29;;;;;;;15.10;11.30;;;;;;;23.55;68.13;101763.47;5095259;28;20388;-59
2022/08/24 08:45:05;;;;;;;16.83;10.48;;;;;;;23.70;66.79;101763.09;5089585;28;20039;-57
2022/08/24 08:47:55;;;;;;;14.23;9.23;;;;;;;23.74;67.73;101757.00;5097308;28;20047;-59
2022/08/24 08:50:39;;;;;;;10.88;8.45;;;;;;;23.87;65.55;101760.56;5098187;28;20110;-56
2022/08/24 08:53:38;;;;;;;15.88;8.82;;;;;;;23.97;66.36;101766.28;5092255;28;20040;-56
2022/08/24 08:56:38;;;;;;;11.75;6.28;;;;;;;24.01;64.25;101767.47;5094961;28;20059;-57
2022/08/24 08:59:30;;;;;;;15.40;9.15;;;;;;;24.12;65.29;101767.78;5089995;28;20062;-57
2022/08/24 09:02:32;;;;;;;16.00;8.40;;;;;;;24.22;65.20;101768.03;5051451;28;20482;-56
2022/08/24 09:05:19;;;;;;;10.57;7.68;;;;;;;24.25;62.90;101770.31;5092221;28;20032;-57
2022/08/24 09:08:05;;;;;;;15.82;8.02;;;;;;;24.34;64.34;101762.66;5092032;28;20047;-57
2022/08/24 09:10:47;;;;;;;11.57;7.55;;;;;;;24.43;65.40;101768.59;5094414;28;20023;-57
2022/08/24 09:13:21;;;;;;;12.90;6.60;;;;;;;24.65;64.20;101770.72;5092031;28;20039;-57
2022/08/24 09:16:08;;;;;;;9.27;6.18;;;;;;;24.68;64.31;101768.38;5093527;28;20035;-58
2022/08/24 09:18:58;;;;;;;11.75;6.30;;;;;;;24.70;62.94;101773.56;5096739;28;20036;-57
2022/08/24 09:21:34;;;;;;;9.73;6.28;;;;;;;24.66;62.09;101773.22;5097670;28;20572;-56
2022/08/24 09:24:36;;;;;;;11.65;6.70;;;;;;;24.65;63.70;101768.84;5098438;28;20039;-57
2022/08/24 09:27:14;;;;;;;10.10;6.38;;;;;;;24.62;61.87;101771.22;5094683;28;20031;-58
2022/08/24 09:29:52;;;;;;;7.75;6.55;;;;;;;24.66;60.82;101777.81;5098949;28;20039;-57
2022/08/24 09:32:34;;;;;;;9.40;5.30;;;;;;;24.68;62.61;101770.28;5092502;28;20506;-56
2022/08/24 09:35:02;;;;;;;9.07;5.57;;;;;;;24.69;60.99;101767.34;5093375;28;20040;-56
2022/08/24 09:38:18;;;;;;;8.55;6.03;;;;;;;24.70;61.34;101768.13;5095907;28;20109;-56
2022/08/24 09:41:17;;;;;;;7.57;5.90;;;;;;;24.78;60.78;101759.69;5007730;28;20041;-56
2022/08/24 09:43:45;;;;;;;7.90;5.10;;;;;;;24.98;59.72;101764.75;5019157;28;20040;-57
2022/08/24 09:46:56;;;;;;;9.35;5.43;;;;;;;25.00;59.29;101766.44;5073798;28;20074;-56
2022/08/24 09:49:51;;;;;;;10.48;5.30;;;;;;;25.28;59.50;101768.41;5094775;28;20043;-57
2022/08/24 09:52:53;;;;;;;9.32;5.57;;;;;;;25.31;59.34;101773.34;5094866;28;20056;-58
2022/08/24 09:55:36;;;;;;;8.85;5.30;;;;;;;25.36;57.60;101770.72;5089695;28;20024;-58
2022/08/24 09:58:19;;;;;;;8.98;4.95;;;;;;;25.47;57.89;101765.53;5086595;28;20032;-57
2022/08/24 10:00:49;;;;;;;8.23;5.10;;;;;;;25.55;56.45;101767.88;5088952;28;20032;-57
2022/08/24 10:03:42;;;;;;;5.03;3.58;;;;;;;25.67;57.00;101764.31;5096811;28;20039;-56
2022/08/24 10:06:20;;;;;;;6.93;3.47;;;;;;;25.72;55.81;101767.13;5094472;28;20080;-56
2022/08/24 10:09:03;;;;;;;9.00;3.50;;;;;;;25.87;57.00;101764.72;5094933;28;20049;-56
2022/08/24 10:11:49;;;;;;;7.00;3.35;;;;;;;25.91;55.50;101757.72;5096274;28;20039;-57
2022/08/24 10:14:37;;;;;;;5.85;3.20;;;;;;;25.88;54.97;101760.09;5098129;28;20431;-56
2022/08/24 10:17:15;;;;;;;4.68;2.95;;;;;;;25.84;54.31;101753.53;5091232;28;20126;-57
2022/08/24 10:19:58;;;;;;;4.85;2.55;;;;;;;26.12;53.75;101749.97;5098348;28;20069;-57
2022/08/24 10:22:51;;;;;;;3.85;2.40;;;;;;;26.13;54.33;101745.31;5102121;28;20032;-57
2022/08/24 10:25:30;;;;;;;3.83;2.35;;;;;;;26.26;53.79;101749.66;5092060;28;20024;-57
2022/08/24 10:28:25;;;;;;;4.57;2.50;;;;;;;26.15;54.23;101749.44;5097236;28;20024;-57
2022/08/24 10:30:58;;;;;;;5.10;2.60;;;;;;;25.94;52.53;101742.81;5094244;28;20047;-58
2022/08/24 10:33:28;;;;;;;2.70;2.50;;;;;;;25.77;54.19;101740.06;5099296;28;20491;-57
2022/08/24 10:36:31;;;;;;;5.13;2.50;;;;;;;25.74;55.77;101745.97;5094021;28;20031;-58
2022/08/24 10:39:39;;;;;;;3.33;2.60;;;;;;;25.63;57.01;101743.09;5096559;28;20423;-57
2022/08/24 10:45:54;;;;;;;3.83;2.20;;;;;;;25.64;56.72;101743.91;5097282;28;20058;-57
2022/08/24 10:48:29;;;;;;;5.13;2.55;;;;;;;25.82;55.04;101740.19;5094531;28;20055;-58
2022/08/24 10:51:12;;;;;;;3.67;2.42;;;;;;;26.15;53.14;101737.78;5097416;28;20385;-57
2022/08/24 10:53:38;;;;;;;5.28;2.60;;;;;;;26.39;51.90;101741.19;5091424;28;20036;-57
2022/08/24 10:56:11;;;;;;;4.50;2.67;;;;;;;26.64;50.20;101739.13;5096973;28;20419;-57
2022/08/24 10:58:39;;;;;;;6.25;2.80;;;;;;;26.84;49.83;101739.41;5093257;28;20035;-58
2022/08/24 11:01:21;;;;;;;5.40;2.53;;;;;;;26.99;51.00;101732.59;5090794;28;20042;-56
2022/08/24 11:03:48;;;;;;;;;;;;;;;27.01;51.90;101732.31;5095740;28;20108;-56
2022/08/24 11:06:16;;;;;;;6.05;3.00;;;;;;;27.15;49.70;101732.78;5098654;28;19926;-57
2022/08/24 11:08:52;;;;;;;3.38;2.80;;;;;;;27.20;50.35;101727.41;5097985;28;20038;-56
2022/08/24 11:11:39;;;;;;;3.90;3.00;;;;;;;27.12;51.42;101723.22;5093255;28;20614;-57
2022/08/24 11:14:21;;;;;;;4.78;2.67;;;;;;;27.02;51.64;101723.09;5095839;28;20111;-56
2022/08/24 11:16:47;;;;;;;3.22;2.63;;;;;;;26.98;49.57;101723.59;5095984;28;20054;-58
2022/08/24 11:19:34;;;;;;;4.32;2.60;;;;;;;27.12;50.24;101717.78;5097879;28;20484;-56
2022/08/24 11:22:19;;;;;;;3.58;2.72;;;;;;;27.11;48.68;101716.13;5098403;28;20039;-57
2022/08/24 11:24:47;;;;;;;2.90;2.70;;;;;;;27.28;48.88;101715.25;5095587;28;20035;-58
2022/08/24 11:27:15;;;;;;;2.50;2.30;;;;;;;27.20;47.37;101716.53;5088294;28;20046;-57
2022/08/24 11:29:50;;;;;;;7.50;2.80;;;;;;;27.31;48.83;101714.75;5096669;28;20034;-56
2022/08/24 11:32:31;;;;;;;3.80;2.90;;;;;;;27.24;48.64;101702.13;5091492;28;20036;-57
2022/08/24 11:35:05;;;;;;;3.20;2.67;;;;;;;27.25;48.95;101711.97;5087655;28;20051;-57
2022/08/24 11:37:36;;;;;;;4.70;3.10;;;;;;;27.21;49.93;101710.84;5094843;28;20031;-57